Time;durP1;ratioP1;P1;durP2;ratioP2;P2;SDS_P1;SDS_P2;PMS_P1;PMS_P2;Temp;Humidity;BMP_temperature;BMP_pressure;BME280_temperature;BME280_humidity;BME280_pressure;Samples;Min_cycle;Max_cycle;Signal;HPM_P1;HPM_P2
2022/09/08 00:00:39;;;;;;;20.02;16.65;;;16.40;99.90;;;;;;5016979;28;20046;-72
2022/09/08 00:03:08;;;;;;;18.10;15.20;;;16.40;99.90;;;;;;5010768;28;20050;-72
2022/09/08 00:05:40;;;;;;;22.05;12.27;;;16.40;99.90;;;;;;5021148;28;20048;-72
2022/09/08 00:08:05;;;;;;;17.90;12.85;;;16.20;99.90;;;;;;5030990;28;20037;-72
2022/09/08 00:10:31;;;;;;;18.17;13.00;;;16.20;99.90;;;;;;5010187;28;20064;-72
2022/09/08 00:12:58;;;;;;;18.08;13.38;;;16.00;99.90;;;;;;5015541;28;20042;-72
2022/09/08 00:15:24;;;;;;;15.95;13.13;;;15.90;99.90;;;;;;5011490;28;20049;-72
2022/09/08 00:17:49;;;;;;;18.40;13.20;;;15.80;99.90;;;;;;5010840;28;20136;-72
2022/09/08 00:20:15;;;;;;;19.10;13.55;;;15.80;99.90;;;;;;5019521;28;20053;-72
2022/09/08 00:22:41;;;;;;;15.73;14.10;;;15.80;99.90;;;;;;5008766;28;20073;-72
2022/09/08 00:25:08;;;;;;;20.67;16.92;;;15.70;99.90;;;;;;5006238;28;20046;-72
2022/09/08 00:27:33;;;;;;;19.13;16.55;;;15.70;99.90;;;;;;5016006;28;20050;-72
2022/09/08 00:29:59;;;;;;;17.55;15.50;;;15.70;99.90;;;;;;5010641;28;20049;-72
2022/09/08 00:32:25;;;;;;;19.33;17.25;;;15.60;99.90;;;;;;5030674;28;20054;-72
2022/09/08 00:34:50;;;;;;;20.67;16.67;;;15.60;99.90;;;;;;5015374;28;20061;-72
2022/09/08 00:37:18;;;;;;;29.17;20.13;;;15.50;99.90;;;;;;5018645;28;20046;-72
2022/09/08 00:39:43;;;;;;;22.13;17.35;;;15.50;99.90;;;;;;5012315;28;20088;-72
2022/09/08 00:42:09;;;;;;;23.23;16.02;;;15.40;99.90;;;;;;5020539;28;20429;-72
2022/09/08 00:44:40;;;;;;;19.92;16.70;;;15.40;99.90;;;;;;5027173;28;20045;-72
2022/09/08 00:47:16;;;;;;;19.30;17.27;;;15.50;99.90;;;;;;5002897;28;20077;-72
2022/09/08 00:49:45;;;;;;;20.13;18.13;;;15.50;99.90;;;;;;5010758;28;20054;-72
2022/09/08 00:52:11;;;;;;;25.17;22.55;;;15.60;99.90;;;;;;5018666;28;20030;-72
2022/09/08 00:54:37;;;;;;;26.58;21.33;;;15.70;99.90;;;;;;5053458;28;20049;-72
2022/09/08 00:57:03;;;;;;;26.63;23.33;;;15.70;99.90;;;;;;5015665;28;20508;-72
2022/09/08 00:59:31;;;;;;;29.48;25.15;;;15.70;99.90;;;;;;5013614;28;20041;-72
2022/09/08 01:01:57;;;;;;;30.85;27.45;;;15.80;99.90;;;;;;5042677;28;20406;-72
2022/09/08 01:04:23;;;;;;;25.85;23.13;;;15.80;99.90;;;;;;5012116;28;20050;-72
2022/09/08 01:12:48;;;;;;;20.90;18.70;;;15.90;99.90;;;;;;5020593;28;20053;-72
2022/09/08 01:15:22;;;;;;;18.42;16.33;;;15.80;99.90;;;;;;5039555;28;20055;-72
2022/09/08 01:17:51;;;;;;;19.23;15.60;;;15.80;99.90;;;;;;5010353;28;20053;-72
2022/09/08 01:20:19;;;;;;;20.70;16.88;;;15.80;99.90;;;;;;5041269;28;20052;-72
2022/09/08 01:22:48;;;;;;;22.77;20.48;;;15.80;99.90;;;;;;5043768;28;20048;-72
2022/09/08 01:25:33;;;;;;;22.27;19.98;;;15.80;99.90;;;;;;5021405;28;20042;-72
2022/09/08 01:28:06;;;;;;;21.63;19.17;;;15.70;99.90;;;;;;5011732;28;20042;-72
2022/09/08 01:30:34;;;;;;;25.35;21.13;;;15.80;99.90;;;;;;5028568;28;20071;-72
2022/09/08 01:33:03;;;;;;;26.00;23.30;;;15.70;99.90;;;;;;5015048;28;20269;-72
2022/09/08 01:35:39;;;;;;;22.03;19.93;;;15.80;99.90;;;;;;5025150;28;20042;-72
2022/09/08 01:38:05;;;;;;;25.60;23.10;;;15.90;99.90;;;;;;5014700;28;20129;-72
2022/09/08 01:40:31;;;;;;;21.13;19.20;;;15.90;99.90;;;;;;5030335;28;20084;-72
2022/09/08 01:42:57;;;;;;;20.10;18.20;;;16.00;99.90;;;;;;5026150;28;20493;-72
2022/09/08 01:45:23;;;;;;;19.85;17.95;;;16.00;99.90;;;;;;5009941;28;20045;-72
2022/09/08 01:47:50;;;;;;;19.13;17.23;;;16.00;99.90;;;;;;5025690;28;20383;-72
2022/09/08 01:50:16;;;;;;;20.70;18.85;;;16.10;99.90;;;;;;5026778;28;20038;-72
2022/09/08 01:52:42;;;;;;;23.17;20.75;;;16.10;99.90;;;;;;5020943;28;20417;-72
2022/09/08 01:55:08;;;;;;;25.25;22.60;;;16.10;99.90;;;;;;5013072;28;20054;-72
2022/09/08 01:57:33;;;;;;;28.20;25.30;;;16.10;99.90;;;;;;5016308;28;20057;-72
2022/09/08 01:59:59;;;;;;;37.38;30.10;;;16.10;99.90;;;;;;5036923;28;20045;-71
2022/09/08 02:02:25;;;;;;;37.72;32.92;;;16.10;99.90;;;;;;5054120;28;20115;-72
2022/09/08 02:04:52;;;;;;;40.72;35.15;;;16.10;99.90;;;;;;5023898;28;20422;-72
2022/09/08 02:07:18;;;;;;;39.72;35.42;;;16.20;99.90;;;;;;5042300;28;20052;-71
2022/09/08 02:09:45;;;;;;;39.30;34.08;;;16.20;99.90;;;;;;5012386;28;20077;-72
2022/09/08 02:12:10;;;;;;;41.67;36.70;;;16.20;99.90;;;;;;5021437;28;20049;-71
2022/09/08 02:14:36;;;;;;;42.95;36.72;;;16.30;99.90;;;;;;5027511;28;20053;-71
2022/09/08 02:17:03;;;;;;;43.50;37.85;;;16.40;99.90;;;;;;5047784;28;20046;-72
2022/09/08 02:19:28;;;;;;;49.78;40.58;;;16.40;99.90;;;;;;5025384;28;20101;-72
2022/09/08 02:21:54;;;;;;;40.80;35.00;;;16.40;99.90;;;;;;5014884;28;20045;-71
2022/09/08 02:24:20;;;;;;;37.78;33.33;;;16.40;99.90;;;;;;5016053;28;20124;-71
2022/09/08 02:26:46;;;;;;;41.33;34.10;;;16.40;99.90;;;;;;5015039;28;20060;-71
2022/09/08 02:29:12;;;;;;;40.88;35.00;;;16.40;99.90;;;;;;5026014;28;20056;-71
2022/09/08 02:31:38;;;;;;;40.42;34.50;;;16.40;99.90;;;;;;5032797;28;20058;-72
2022/09/08 02:34:04;;;;;;;42.85;35.60;;;16.40;99.90;;;;;;5006677;28;20054;-72
2022/09/08 02:36:30;;;;;;;41.83;36.78;;;16.30;99.90;;;;;;4994940;28;20250;-71
2022/09/08 02:38:56;;;;;;;45.67;38.83;;;16.30;99.90;;;;;;4981886;28;20461;-71
2022/09/08 02:41:24;;;;;;;47.92;40.97;;;16.30;99.90;;;;;;4986071;28;20059;-71
2022/09/08 02:43:50;;;;;;;46.92;38.97;;;16.30;99.90;;;;;;4985650;28;20336;-71
2022/09/08 02:46:16;;;;;;;45.20;36.80;;;16.40;99.90;;;;;;5004051;28;20042;-71
2022/09/08 02:48:42;;;;;;;48.55;39.28;;;16.30;99.90;;;;;;4970965;28;20058;-71
2022/09/08 02:51:10;;;;;;;48.08;38.70;;;16.30;99.90;;;;;;5019529;28;20050;-71
2022/09/08 02:53:38;;;;;;;43.75;39.05;;;16.30;99.90;;;;;;4984129;28;20108;-71
2022/09/08 02:56:04;;;;;;;46.38;39.67;;;16.30;99.90;;;;;;4984345;28;20058;-71
2022/09/08 02:58:31;;;;;;;51.45;41.97;;;16.30;99.90;;;;;;4988499;28;20093;-71
2022/09/08 03:00:57;;;;;;;49.75;41.33;;;16.30;99.90;;;;;;4989967;28;20042;-72
2022/09/08 03:03:23;;;;;;;51.45;41.58;;;16.40;99.90;;;;;;5008389;28;20150;-71
2022/09/08 03:05:50;;;;;;;44.20;37.35;;;16.40;99.90;;;;;;4977750;28;20065;-71
2022/09/08 03:08:17;;;;;;;49.80;41.42;;;16.40;99.90;;;;;;4981112;28;20046;-71
2022/09/08 03:10:44;;;;;;;46.08;37.28;;;16.40;99.90;;;;;;5028945;28;20061;-71
2022/09/08 03:13:10;;;;;;;45.90;39.15;;;16.40;99.90;;;;;;4988179;28;20038;-71
2022/09/08 03:15:36;;;;;;;47.53;40.25;;;16.40;99.90;;;;;;4985362;28;20045;-71
2022/09/08 03:18:04;;;;;;;45.83;38.97;;;16.30;99.90;;;;;;4993559;28;20104;-71
2022/09/08 03:20:35;;;;;;;47.53;38.67;;;16.30;99.90;;;;;;4987404;28;20118;-71
2022/09/08 03:23:02;;;;;;;43.63;37.55;;;16.30;99.90;;;;;;5005211;28;20058;-71
2022/09/08 03:25:28;;;;;;;40.97;35.65;;;16.30;99.90;;;;;;5008942;28;20114;-71
2022/09/08 03:27:54;;;;;;;45.67;37.53;;;16.30;99.90;;;;;;4992644;28;20042;-71
2022/09/08 03:30:20;;;;;;;45.53;38.88;;;16.30;99.90;;;;;;5004070;28;20112;-71
2022/09/08 03:32:47;;;;;;;41.70;36.03;;;16.30;99.90;;;;;;4997965;28;20054;-71
2022/09/08 03:35:15;;;;;;;46.38;38.90;;;16.30;99.90;;;;;;5015099;28;20069;-71
2022/09/08 03:37:42;;;;;;;45.03;37.75;;;16.30;99.90;;;;;;5012015;28;20486;-71
2022/09/08 03:40:11;;;;;;;42.92;36.72;;;16.30;99.90;;;;;;5010949;28;20045;-71
2022/09/08 03:42:40;;;;;;;42.75;36.70;;;16.30;99.90;;;;;;5027361;28;20046;-71
2022/09/08 03:45:12;;;;;;;44.40;38.30;;;16.30;99.90;;;;;;5013370;28;20068;-71
2022/09/08 03:47:38;;;;;;;41.65;37.10;;;16.20;99.90;;;;;;5009186;28;20050;-71
2022/09/08 03:50:04;;;;;;;45.35;35.33;;;16.30;99.90;;;;;;5011453;28;20068;-71
2022/09/08 03:52:30;;;;;;;50.55;41.10;;;16.30;99.90;;;;;;4994813;28;20041;-71
2022/09/08 03:54:56;;;;;;;47.10;38.90;;;16.30;99.90;;;;;;5028349;28;20097;-71
2022/09/08 03:57:25;;;;;;;49.45;40.90;;;16.30;99.90;;;;;;5004710;28;20050;-71
2022/09/08 03:59:52;;;;;;;48.60;39.72;;;16.30;99.90;;;;;;4996107;28;20064;-71
2022/09/08 04:02:19;;;;;;;48.10;39.33;;;16.30;99.90;;;;;;5013611;28;20073;-71
2022/09/08 04:04:49;;;;;;;47.35;38.78;;;16.20;99.90;;;;;;5047197;28;20037;-71
2022/09/08 04:07:17;;;;;;;52.15;43.17;;;16.20;99.90;;;;;;5007676;28;20057;-71
2022/09/08 04:09:43;;;;;;;58.10;48.67;;;16.20;99.90;;;;;;5008919;28;20046;-71
2022/09/08 04:12:09;;;;;;;56.08;46.28;;;16.30;99.90;;;;;;5012360;28;20164;-71
2022/09/08 04:14:35;;;;;;;56.55;44.92;;;16.30;99.90;;;;;;5051423;28;20046;-71
2022/09/08 04:17:01;;;;;;;57.97;46.97;;;16.40;99.90;;;;;;4997928;28;20050;-71
2022/09/08 04:19:27;;;;;;;56.45;45.17;;;16.40;99.90;;;;;;4988673;28;20050;-71
2022/09/08 04:21:53;;;;;;;52.92;44.20;;;16.40;99.90;;;;;;5034562;28;20050;-71
2022/09/08 04:24:19;;;;;;;53.20;43.55;;;16.40;99.90;;;;;;5013359;28;20052;-71
2022/09/08 04:26:45;;;;;;;55.67;44.10;;;16.40;99.90;;;;;;4998912;28;20528;-71
2022/09/08 04:29:11;;;;;;;57.53;44.90;;;16.40;99.90;;;;;;5015611;28;20034;-71
2022/09/08 04:31:37;;;;;;;59.45;47.70;;;16.40;99.90;;;;;;5007320;28;20110;-71
2022/09/08 04:34:04;;;;;;;63.85;49.13;;;16.40;99.90;;;;;;5006260;28;20045;-71
2022/09/08 04:36:30;;;;;;;62.28;50.13;;;16.40;99.90;;;;;;5014787;28;20436;-71
2022/09/08 04:38:58;;;;;;;62.20;49.58;;;16.40;99.90;;;;;;5021048;28;20060;-71
2022/09/08 04:41:25;;;;;;;65.93;51.13;;;16.50;99.90;;;;;;5011322;28;20045;-71
2022/09/08 04:43:51;;;;;;;62.30;49.88;;;16.40;99.90;;;;;;5009842;28;20054;-71
2022/09/08 04:46:17;;;;;;;59.03;46.40;;;16.40;99.90;;;;;;5009910;28;20037;-71
2022/09/08 04:48:44;;;;;;;63.80;49.10;;;16.40;99.90;;;;;;4981008;28;20089;-71
2022/09/08 04:51:12;;;;;;;59.15;48.13;;;16.30;99.90;;;;;;5007753;28;20056;-71
2022/09/08 04:53:37;;;;;;;61.30;48.53;;;16.40;99.90;;;;;;5010170;28;20057;-71
2022/09/08 04:56:05;;;;;;;67.47;52.25;;;16.30;99.90;;;;;;5002584;28;20042;-71
2022/09/08 04:58:33;;;;;;;69.85;52.22;;;16.30;99.90;;;;;;5024567;28;20049;-71
2022/09/08 05:01:08;;;;;;;62.15;49.75;;;16.30;99.90;;;;;;5015314;28;20101;-71
2022/09/08 05:03:34;;;;;;;63.25;48.72;;;16.40;99.90;;;;;;5007054;28;20048;-71
2022/09/08 05:06:15;;;;;;;62.70;49.30;;;16.30;99.90;;;;;;5011314;28;20054;-71
2022/09/08 05:08:43;;;;;;;59.80;47.10;;;16.40;99.90;;;;;;5013871;28;20041;-71
2022/09/08 05:11:09;;;;;;;58.10;45.42;;;16.30;99.90;;;;;;5013193;28;20064;-71
2022/09/08 05:13:35;;;;;;;61.05;47.22;;;16.30;99.90;;;;;;5029859;28;20046;-71
2022/09/08 05:16:12;;;;;;;58.83;46.33;;;16.30;99.90;;;;;;5010056;28;20060;-71
2022/09/08 05:18:39;;;;;;;60.35;47.90;;;16.30;99.90;;;;;;4997257;28;20050;-71
2022/09/08 05:21:06;;;;;;;60.95;47.00;;;16.30;99.90;;;;;;5007985;28;20045;-72
2022/09/08 05:23:32;;;;;;;59.25;45.72;;;16.20;99.90;;;;;;5022776;28;20265;-71
2022/09/08 05:26:01;;;;;;;62.03;48.03;;;16.20;99.90;;;;;;5007619;28;20046;-71
2022/09/08 05:28:29;;;;;;;60.55;45.47;;;16.10;99.90;;;;;;4983644;28;20219;-69
2022/09/08 05:30:56;;;;;;;58.22;46.65;;;16.10;99.90;;;;;;4984122;28;20049;-69
2022/09/08 05:33:23;;;;;;;59.25;44.53;;;16.10;99.90;;;;;;4998047;28;20046;-67
2022/09/08 05:35:49;;;;;;;61.53;48.72;;;16.10;99.90;;;;;;5001806;28;20567;-70
2022/09/08 05:38:15;;;;;;;64.13;49.30;;;16.20;99.90;;;;;;5000514;28;20596;-68
2022/09/08 05:40:42;;;;;;;69.82;52.33;;;16.30;99.90;;;;;;4999541;28;20049;-67
2022/09/08 05:43:07;;;;;;;62.80;47.88;;;16.30;99.90;;;;;;5025833;28;20262;-68
2022/09/08 05:45:33;;;;;;;63.95;48.17;;;16.30;99.90;;;;;;5014501;28;20053;-67
2022/09/08 05:47:59;;;;;;;66.13;48.30;;;16.40;99.90;;;;;;5003741;28;20049;-68
2022/09/08 05:50:26;;;;;;;67.32;50.30;;;16.50;99.90;;;;;;4999231;28;20132;-68
2022/09/08 05:52:52;;;;;;;67.43;50.28;;;16.40;99.90;;;;;;5038420;28;20044;-68
2022/09/08 05:55:17;;;;;;;63.45;49.60;;;16.50;99.90;;;;;;5017464;28;20167;-68
2022/09/08 05:57:43;;;;;;;60.15;48.17;;;16.50;99.90;;;;;;5013356;28;20108;-67
2022/09/08 06:00:10;;;;;;;68.00;49.53;;;16.50;99.90;;;;;;4995866;28;20061;-67
2022/09/08 06:02:36;;;;;;;68.20;50.40;;;16.50;99.90;;;;;;5016580;28;20054;-68
2022/09/08 06:05:02;;;;;;;65.07;49.63;;;16.50;99.90;;;;;;5028594;28;20108;-68
2022/09/08 06:07:28;;;;;;;69.55;51.67;;;16.50;99.90;;;;;;4997762;28;20058;-68
2022/09/08 06:09:54;;;;;;;62.15;47.72;;;16.50;99.90;;;;;;5000514;28;20038;-69
2022/09/08 06:12:20;;;;;;;68.57;49.15;;;16.50;99.90;;;;;;5016335;28;20559;-68
2022/09/08 06:14:46;;;;;;;66.90;50.75;;;16.60;99.90;;;;;;5002320;28;20042;-68
2022/09/08 06:17:12;;;;;;;68.05;48.65;;;16.60;99.90;;;;;;5023390;28;20061;-67
2022/09/08 06:19:38;;;;;;;74.38;55.85;;;16.60;99.90;;;;;;5007891;28;20072;-73
2022/09/08 06:22:04;;;;;;;74.03;54.92;;;16.50;99.90;;;;;;5016431;28;20371;-67
2022/09/08 06:24:29;;;;;;;84.57;58.55;;;16.40;99.90;;;;;;5011763;28;20042;-68
2022/09/08 06:27:03;;;;;;;83.93;64.60;;;16.40;99.90;;;;;;5027599;28;20085;-69
2022/09/08 06:29:35;;;;;;;81.93;61.33;;;16.50;99.90;;;;;;5010863;28;20056;-67
2022/09/08 06:32:27;;;;;;;78.88;59.00;;;16.60;99.90;;;;;;5026766;28;20573;-68
2022/09/08 06:35:00;;;;;;;78.10;58.60;;;16.70;99.90;;;;;;5006375;28;20050;-69
2022/09/08 06:37:47;;;;;;;74.00;57.60;;;16.70;99.90;;;;;;5016082;28;20059;-68
2022/09/08 06:40:16;;;;;;;66.82;53.17;;;16.80;99.90;;;;;;5013269;28;20073;-68
2022/09/08 06:42:44;;;;;;;66.50;50.65;;;16.80;99.90;;;;;;5022748;28;20069;-68
2022/09/08 06:45:34;;;;;;;66.82;54.08;;;16.80;99.90;;;;;;5003402;28;20061;-72
2022/09/08 06:48:06;;;;;;;75.18;55.03;;;16.90;99.90;;;;;;5005964;28;20513;-67
2022/09/08 06:50:33;;;;;;;73.80;55.83;;;17.00;99.90;;;;;;5011107;28;20049;-67
2022/09/08 06:53:05;;;;;;;67.40;53.15;;;17.10;99.90;;;;;;5004240;28;20042;-66
2022/09/08 06:55:46;;;;;;;77.18;55.78;;;17.10;99.90;;;;;;4979108;28;20053;-67
2022/09/08 06:58:41;;;;;;;81.97;58.92;;;17.10;99.90;;;;;;5011510;28;20647;-68
2022/09/08 07:01:18;;;;;;;69.60;53.17;;;17.20;99.90;;;;;;5026271;28;20044;-67
2022/09/08 07:03:43;;;;;;;69.55;52.60;;;17.10;99.90;;;;;;5023830;28;20043;-69
2022/09/08 07:06:10;;;;;;;71.20;55.38;;;17.20;99.90;;;;;;4971161;28;20080;-66
2022/09/08 07:08:39;;;;;;;71.25;54.03;;;17.20;99.90;;;;;;5006244;28;20053;-67
2022/09/08 07:11:30;;;;;;;74.53;56.38;;;17.20;99.90;;;;;;5011333;28;20104;-68
2022/09/08 07:14:14;;;;;;;74.35;52.53;;;17.20;99.90;;;;;;4953420;28;20086;-69
2022/09/08 07:17:09;;;;;;;75.65;56.53;;;17.30;99.90;;;;;;4956830;28;20043;-68
2022/09/08 07:19:51;;;;;;;63.70;49.67;;;17.20;99.90;;;;;;4957629;28;20489;-68
2022/09/08 07:22:32;;;;;;;62.95;48.08;;;17.20;99.90;;;;;;4944047;28;20056;-68
2022/09/08 07:25:20;;;;;;;61.05;47.42;;;17.30;99.90;;;;;;4958098;28;20059;-68
2022/09/08 07:27:52;;;;;;;60.90;47.42;;;17.30;99.90;;;;;;4932166;28;20054;-68
2022/09/08 07:30:19;;;;;;;52.45;42.30;;;17.30;99.90;;;;;;4915558;28;20078;-68
2022/09/08 07:32:51;;;;;;;52.20;41.20;;;17.30;99.90;;;;;;4944894;29;20047;-68
2022/09/08 07:35:35;;;;;;;46.10;37.92;;;17.30;99.90;;;;;;4920424;29;20082;-68
2022/09/08 07:38:09;;;;;;;46.30;37.53;;;17.30;99.90;;;;;;4938201;29;20607;-68
2022/09/08 07:40:43;;;;;;;43.50;36.47;;;17.30;99.90;;;;;;4959443;28;20050;-68
2022/09/08 07:43:11;;;;;;;46.38;36.47;;;17.30;99.90;;;;;;4951149;29;20086;-67
2022/09/08 07:45:49;;;;;;;40.38;34.85;;;17.30;99.90;;;;;;4951102;28;20055;-67
2022/09/08 07:48:31;;;;;;;45.60;38.70;;;17.30;99.90;;;;;;4954110;28;20043;-68
2022/09/08 07:51:12;;;;;;;47.63;37.42;;;17.30;99.90;;;;;;4981062;28;20049;-67
2022/09/08 07:53:43;;;;;;;49.78;39.17;;;17.30;99.90;;;;;;5015613;28;20045;-67
2022/09/08 07:56:24;;;;;;;52.85;41.63;;;17.30;99.90;;;;;;5024646;28;20053;-67
2022/09/08 07:59:16;;;;;;;53.17;44.63;;;17.30;99.90;;;;;;5028807;28;20046;-68
2022/09/08 08:02:15;;;;;;;61.60;44.63;;;17.30;99.90;;;;;;4958724;28;20073;-67
2022/09/08 08:05:07;;;;;;;68.53;49.90;;;17.20;99.90;;;;;;4989250;28;20138;-67
2022/09/08 08:07:58;;;;;;;66.40;50.40;;;17.20;99.90;;;;;;4967708;28;20088;-68
2022/09/08 08:10:29;;;;;;;71.53;50.08;;;17.20;99.90;;;;;;4992193;28;20057;-67
2022/09/08 08:13:19;;;;;;;75.45;55.00;;;17.20;99.90;;;;;;5024380;28;20042;-66
2022/09/08 08:16:02;;;;;;;71.68;54.25;;;17.20;99.90;;;;;;5009492;28;20476;-66
2022/09/08 08:18:48;;;;;;;71.30;53.15;;;17.30;99.90;;;;;;5017816;28;20057;-67
2022/09/08 08:21:18;;;;;;;74.85;54.13;;;17.20;99.90;;;;;;5013507;28;20052;-69
2022/09/08 08:24:26;;;;;;;73.57;54.20;;;17.30;99.90;;;;;;5023451;28;20046;-69
2022/09/08 08:27:06;;;;;;;72.38;52.15;;;17.30;99.90;;;;;;5010461;28;20061;-69
2022/09/08 08:30:15;;;;;;;69.28;51.70;;;17.30;99.90;;;;;;4987031;28;20049;-68
2022/09/08 08:32:46;;;;;;;68.70;50.55;;;17.30;99.90;;;;;;4948229;28;20059;-69
2022/09/08 08:35:38;;;;;;;66.43;48.92;;;17.30;99.90;;;;;;4934769;29;20063;-69
2022/09/08 08:38:05;;;;;;;72.07;50.13;;;17.30;99.90;;;;;;4952454;28;20061;-68
2022/09/08 08:40:48;;;;;;;72.20;51.50;;;17.20;99.90;;;;;;4967657;28;20525;-69
2022/09/08 08:43:22;;;;;;;72.30;51.25;;;17.20;99.90;;;;;;4953041;28;20375;-69
2022/09/08 08:46:00;;;;;;;72.68;50.88;;;17.00;99.90;;;;;;4935361;28;20055;-69
2022/09/08 08:48:32;;;;;;;74.13;51.45;;;17.10;99.90;;;;;;4951278;28;20054;-68
2022/09/08 08:51:41;;;;;;;68.65;50.08;;;17.10;99.90;;;;;;4940481;28;20061;-68
2022/09/08 08:54:09;;;;;;;72.40;48.80;;;17.10;99.90;;;;;;4946733;28;20087;-68
2022/09/08 08:57:09;;;;;;;67.97;49.15;;;17.20;99.90;;;;;;4957105;28;20082;-68
2022/09/08 08:59:49;;;;;;;64.90;46.65;;;17.20;99.90;;;;;;4960488;28;20404;-68
2022/09/08 09:02:35;;;;;;;58.72;42.88;;;17.30;99.90;;;;;;4947948;28;20055;-67
2022/09/08 09:05:16;;;;;;;53.28;39.90;;;17.20;99.90;;;;;;4943676;28;20051;-68
2022/09/08 09:07:59;;;;;;;55.70;41.47;;;17.20;99.90;;;;;;4932478;28;20047;-67
2022/09/08 09:11:03;;;;;;;59.47;41.33;;;17.30;99.90;;;;;;4994763;28;20092;-68
2022/09/08 09:13:39;;;;;;;48.47;35.35;;;17.20;99.90;;;;;;4971593;28;20047;-68
2022/09/08 09:16:16;;;;;;;45.75;33.97;;;17.30;99.90;;;;;;4941661;28;20051;-69
2022/09/08 09:19:00;;;;;;;40.20;31.75;;;17.20;99.90;;;;;;4951058;28;20070;-69
2022/09/08 09:21:38;;;;;;;42.63;31.15;;;17.20;99.90;;;;;;4939608;28;20084;-68
2022/09/08 09:24:16;;;;;;;34.38;26.88;;;17.20;99.90;;;;;;4948194;29;20062;-68
2022/09/08 09:26:53;;;;;;;33.55;26.33;;;17.20;99.90;;;;;;4930708;29;20083;-68
2022/09/08 09:29:24;;;;;;;28.73;22.58;;;17.30;99.90;;;;;;4920863;28;20055;-68
2022/09/08 09:32:00;;;;;;;32.03;23.52;;;17.30;99.90;;;;;;4965666;28;20051;-68
2022/09/08 09:35:01;;;;;;;28.92;23.23;;;17.30;99.90;;;;;;4959938;28;20047;-67
2022/09/08 09:38:00;;;;;;;29.40;20.95;;;17.40;99.90;;;;;;4935899;28;20051;-67
2022/09/08 09:40:43;;;;;;;27.50;20.75;;;17.40;99.90;;;;;;4942179;28;20058;-68
2022/09/08 09:43:24;;;;;;;22.35;18.92;;;17.30;99.90;;;;;;4952819;28;20118;-68
2022/09/08 09:46:34;;;;;;;19.50;14.93;;;17.30;99.90;;;;;;4999628;28;20296;-68
2022/09/08 09:49:26;;;;;;;20.33;16.25;;;17.30;99.90;;;;;;5004457;28;20229;-68
2022/09/08 09:52:05;;;;;;;16.25;13.60;;;17.40;99.90;;;;;;5005931;28;20050;-68
2022/09/08 09:54:54;;;;;;;17.83;14.48;;;17.30;99.90;;;;;;4997551;28;20054;-67
2022/09/08 09:57:45;;;;;;;16.35;12.98;;;17.30;99.90;;;;;;5004689;28;20057;-67
2022/09/08 10:00:17;;;;;;;16.33;12.45;;;17.30;99.90;;;;;;5027289;28;20052;-68
2022/09/08 10:03:04;;;;;;;14.65;11.25;;;17.30;99.90;;;;;;5008992;28;20050;-68
2022/09/08 10:05:58;;;;;;;12.60;11.30;;;17.30;99.90;;;;;;5013128;28;20073;-68
2022/09/08 10:08:51;;;;;;;12.70;9.68;;;17.40;99.90;;;;;;5029843;28;20053;-68
2022/09/08 10:11:31;;;;;;;12.13;10.73;;;17.20;99.90;;;;;;5009399;28;20250;-68
2022/09/08 10:14:47;;;;;;;12.77;9.80;;;17.30;99.90;;;;;;4997954;28;20042;-68
2022/09/08 10:17:52;;;;;;;11.73;10.50;;;17.30;99.90;;;;;;5025966;28;20055;-68
2022/09/08 10:20:40;;;;;;;13.27;11.85;;;17.40;99.90;;;;;;5036754;28;20079;-68
2022/09/08 10:23:31;;;;;;;13.65;12.15;;;17.40;99.90;;;;;;4981460;28;24392;-68
2022/09/08 10:26:35;;;;;;;12.45;11.15;;;17.40;99.90;;;;;;5006500;28;20078;-69
2022/09/08 10:29:31;;;;;;;13.52;11.43;;;17.40;99.90;;;;;;5001251;28;20050;-70
2022/09/08 10:32:34;;;;;;;12.35;11.02;;;17.40;99.90;;;;;;5018102;28;20049;-70
2022/09/08 10:35:19;;;;;;;9.63;8.23;;;17.40;99.90;;;;;;5017394;28;20058;-70
2022/09/08 10:38:07;;;;;;;11.55;8.75;;;17.40;99.90;;;;;;5015969;28;20054;-70
2022/09/08 10:40:54;;;;;;;10.10;8.10;;;17.40;99.90;;;;;;5005334;28;20034;-70
2022/09/08 10:43:32;;;;;;;10.52;9.43;;;17.40;99.90;;;;;;4987787;28;20572;-70
2022/09/08 10:46:33;;;;;;;8.05;7.25;;;17.40;99.90;;;;;;4991505;28;20063;-71
2022/09/08 10:49:18;;;;;;;6.97;4.68;;;17.40;99.90;;;;;;5007399;28;20139;-71
2022/09/08 10:51:47;;;;;;;7.88;4.43;;;17.30;99.90;;;;;;5017062;28;20416;-71
2022/09/08 10:54:28;;;;;;;5.28;4.10;;;17.40;99.90;;;;;;5002073;28;20048;-71
2022/09/08 10:56:58;;;;;;;5.57;4.43;;;17.40;99.90;;;;;;4996524;28;20045;-71
2022/09/08 10:59:55;;;;;;;6.22;3.50;;;17.40;99.90;;;;;;5003859;28;20052;-70
2022/09/08 11:02:32;;;;;;;4.93;3.38;;;17.30;99.90;;;;;;5023822;28;20269;-70
2022/09/08 11:05:06;;;;;;;4.82;3.00;;;17.40;99.90;;;;;;4995528;28;20060;-71
2022/09/08 11:07:59;;;;;;;4.38;2.60;;;17.30;99.90;;;;;;5010620;28;20085;-71
2022/09/08 11:11:03;;;;;;;4.07;3.08;;;17.20;99.90;;;;;;5013814;28;20061;-70
2022/09/08 11:13:49;;;;;;;3.10;2.35;;;17.20;99.90;;;;;;4930793;28;20066;-70
2022/09/08 11:16:50;;;;;;;5.28;2.85;;;17.00;99.90;;;;;;4948914;28;20055;-70
2022/09/08 11:19:27;;;;;;;4.80;3.00;;;17.00;99.90;;;;;;4986020;28;20191;-70
2022/09/08 11:22:27;;;;;;;6.80;3.15;;;17.00;99.90;;;;;;4988621;28;20064;-70
2022/09/08 11:25:33;;;;;;;5.10;3.10;;;17.00;99.90;;;;;;4981179;28;20088;-70
2022/09/08 11:28:39;;;;;;;4.78;3.13;;;16.90;99.90;;;;;;4989115;28;20057;-70
2022/09/08 11:31:23;;;;;;;5.40;3.47;;;17.00;99.90;;;;;;4954493;28;20054;-70
2022/09/08 11:34:00;;;;;;;7.43;3.40;;;17.00;99.90;;;;;;4991853;28;20042;-70
2022/09/08 11:36:50;;;;;;;4.95;3.47;;;17.00;99.90;;;;;;4956103;28;20062;-71
2022/09/08 11:39:39;;;;;;;5.20;3.38;;;17.00;99.90;;;;;;4969565;28;20379;-71
2022/09/08 11:42:45;;;;;;;4.63;3.30;;;17.00;99.90;;;;;;4948424;28;20291;-71
2022/09/08 11:45:36;;;;;;;7.55;2.97;;;17.00;99.90;;;;;;4979833;28;20080;-71
2022/09/08 11:48:22;;;;;;;6.22;3.20;;;17.10;99.90;;;;;;4969000;28;20055;-71
2022/09/08 11:51:06;;;;;;;5.35;2.60;;;17.00;99.90;;;;;;4997521;28;20065;-70
2022/09/08 11:53:41;;;;;;;7.55;2.80;;;17.00;99.90;;;;;;4965689;28;20485;-68
2022/09/08 11:56:15;;;;;;;4.80;2.75;;;16.90;99.90;;;;;;5008859;28;20050;-69
2022/09/08 11:59:07;;;;;;;4.03;2.65;;;16.90;99.90;;;;;;5040888;28;20061;-69
2022/09/08 12:02:13;;;;;;;6.38;3.15;;;16.90;99.90;;;;;;5009767;28;20054;-69
2022/09/08 12:04:57;;;;;;;5.55;2.65;;;17.00;99.90;;;;;;5018723;28;20050;-69
2022/09/08 12:07:44;;;;;;;5.93;3.05;;;17.00;99.90;;;;;;5006267;28;20050;-69
2022/09/08 12:10:24;;;;;;;4.60;3.50;;;17.00;99.90;;;;;;5048924;28;20045;-69
2022/09/08 12:13:14;;;;;;;5.35;2.90;;;17.10;99.90;;;;;;4992770;28;20101;-69
2022/09/08 12:16:22;;;;;;;5.10;2.70;;;17.00;99.90;;;;;;5010218;28;20054;-69
2022/09/08 12:18:56;;;;;;;4.40;3.00;;;17.00;99.90;;;;;;4997633;28;20054;-68
2022/09/08 12:22:00;;;;;;;4.38;2.80;;;17.10;99.90;;;;;;5028891;28;20049;-75
2022/09/08 12:24:38;;;;;;;4.28;2.58;;;17.10;99.90;;;;;;5006548;28;20049;-77
2022/09/08 12:27:42;;;;;;;3.70;2.58;;;17.10;99.90;;;;;;5018466;28;20045;-66
2022/09/08 12:30:39;;;;;;;5.22;2.83;;;17.20;99.90;;;;;;4994591;28;20131;-68
2022/09/08 12:33:31;;;;;;;5.63;2.85;;;17.20;99.90;;;;;;4958744;28;20094;-69
2022/09/08 12:36:12;;;;;;;5.03;3.00;;;17.20;99.90;;;;;;4951540;29;20059;-69
2022/09/08 12:39:00;;;;;;;4.05;2.90;;;17.20;99.90;;;;;;4983777;28;20046;-69
2022/09/08 12:41:34;;;;;;;4.10;3.08;;;17.30;99.90;;;;;;4978849;28;20058;-69
2022/09/08 12:44:33;;;;;;;4.40;2.42;;;17.10;99.90;;;;;;4968296;28;20039;-69
2022/09/08 12:47:10;;;;;;;3.90;2.45;;;17.20;99.90;;;;;;4981441;28;20059;-69
2022/09/08 12:50:00;;;;;;;4.57;2.67;;;17.10;99.90;;;;;;4977308;28;20082;-69
2022/09/08 12:52:45;;;;;;;3.70;2.92;;;17.20;99.90;;;;;;4986836;28;20061;-69
2022/09/08 12:55:45;;;;;;;5.30;3.00;;;17.10;99.90;;;;;;4997018;28;20106;-69
2022/09/08 12:58:22;;;;;;;5.57;3.05;;;17.20;99.90;;;;;;4968749;28;20054;-69
2022/09/08 13:01:06;;;;;;;6.35;3.47;;;17.30;99.90;;;;;;4974598;28;20051;-69
2022/09/08 13:03:37;;;;;;;4.53;3.10;;;17.30;99.90;;;;;;4974079;28;20110;-69
2022/09/08 13:06:30;;;;;;;5.88;4.30;;;17.40;99.90;;;;;;4983044;28;20594;-69
2022/09/08 13:09:06;;;;;;;7.63;4.68;;;17.50;99.90;;;;;;4986031;28;20059;-69
2022/09/08 13:11:48;;;;;;;6.85;5.25;;;17.50;99.90;;;;;;5054693;28;20060;-69
2022/09/08 13:14:14;;;;;;;6.57;4.82;;;17.60;99.90;;;;;;5012393;28;20409;-69
2022/09/08 13:16:59;;;;;;;7.28;5.03;;;17.60;99.90;;;;;;5012246;28;20191;-69
2022/09/08 13:19:28;;;;;;;6.80;4.93;;;17.70;99.90;;;;;;5020512;28;20084;-69